createdAt,value
2018-05-06T00:01:35.326Z,50.30
2018-05-06T00:04:02.917Z,49.50
2018-05-06T00:06:31.260Z,49.60
2018-05-06T00:08:58.858Z,49.60
2018-05-06T00:11:27.483Z,48.50
2018-05-06T00:13:55.054Z,48.50
2018-05-06T00:16:22.633Z,48.90
2018-05-06T00:18:50.235Z,49.10
2018-05-06T00:21:17.784Z,49.00
2018-05-06T00:23:46.120Z,49.10
2018-05-06T00:26:13.935Z,49.10
2018-05-06T00:28:41.517Z,48.70
2018-05-06T00:31:09.072Z,49.60
2018-05-06T00:33:36.807Z,49.40
2018-05-06T00:36:05.163Z,49.70
2018-05-06T00:38:32.720Z,49.70
2018-05-06T00:41:00.320Z,49.80
2018-05-06T00:43:27.884Z,50.80
2018-05-06T00:45:55.493Z,50.30
2018-05-06T00:48:23.052Z,50.00
2018-05-06T00:50:50.786Z,50.90
2018-05-06T00:53:18.356Z,50.50
2018-05-06T00:55:45.935Z,51.00
2018-05-06T00:58:13.473Z,51.40
2018-05-06T01:00:41.253Z,51.70
2018-05-06T01:03:10.301Z,53.30
2018-05-06T01:05:37.875Z,53.30
2018-05-06T01:08:05.737Z,53.20
2018-05-06T01:10:33.453Z,53.50
2018-05-06T01:13:08.327Z,53.20
2018-05-06T01:15:35.905Z,53.20
2018-05-06T01:18:03.487Z,54.00
2018-05-06T01:20:31.045Z,54.20
2018-05-06T01:22:59.423Z,55.30
2018-05-06T01:25:26.988Z,55.20
2018-05-06T01:27:54.528Z,55.80
2018-05-06T01:30:22.091Z,56.00
2018-05-06T01:32:49.667Z,57.20
2018-05-06T01:35:17.214Z,57.50
2018-05-06T01:37:44.795Z,57.90
2018-05-06T01:40:12.341Z,57.60
2018-05-06T01:42:40.700Z,57.90
2018-05-06T01:45:08.259Z,57.90
2018-05-06T01:47:35.895Z,57.60
2018-05-06T01:50:03.482Z,58.20
2018-05-06T01:52:31.059Z,58.40
2018-05-06T01:54:58.625Z,58.50
2018-05-06T01:57:26.401Z,58.70
2018-05-06T01:59:54.732Z,60.40
2018-05-06T02:02:22.330Z,60.40
2018-05-06T02:04:49.952Z,60.20
2018-05-06T02:07:17.491Z,60.10
2018-05-06T02:09:45.210Z,60.70
2018-05-06T02:12:12.883Z,60.90
2018-05-06T02:14:41.214Z,61.60
2018-05-06T02:17:08.800Z,61.50
2018-05-06T02:19:36.355Z,62.00
2018-05-06T02:22:03.943Z,63.60
2018-05-06T02:24:31.685Z,63.80
2018-05-06T02:26:59.488Z,64.10
2018-05-06T02:29:27.037Z,64.10
2018-05-06T02:31:54.622Z,64.00
2018-05-06T02:34:22.205Z,63.50
2018-05-06T02:36:49.789Z,62.60
2018-05-06T02:39:17.480Z,63.50
2018-05-06T02:41:45.064Z,65.30
2018-05-06T02:44:12.630Z,65.00
2018-05-06T02:46:40.322Z,65.20
2018-05-06T02:49:07.873Z,65.20
2018-05-06T02:51:35.439Z,67.10
2018-05-06T02:54:03.017Z,67.50
2018-05-06T02:56:30.573Z,67.10
2018-05-06T02:58:58.132Z,67.40
2018-05-06T03:01:25.704Z,67.70
2018-05-06T03:03:54.763Z,68.60
2018-05-06T03:06:22.308Z,68.50
2018-05-06T03:08:49.955Z,68.90
2018-05-06T03:11:17.519Z,68.70
2018-05-06T03:13:45.260Z,68.30
2018-05-06T03:16:12.800Z,68.90
2018-05-06T03:18:41.137Z,68.80
2018-05-06T03:21:08.689Z,68.80
2018-05-06T03:23:36.267Z,69.30
2018-05-06T03:26:03.915Z,70.00
2018-05-06T03:28:31.495Z,70.60
2018-05-06T03:30:59.048Z,71.50
2018-05-06T03:33:26.594Z,71.20
2018-05-06T03:35:54.171Z,70.70
2018-05-06T03:38:21.820Z,70.50
2018-05-06T03:40:49.390Z,70.90
2018-05-06T03:43:16.948Z,70.70
2018-05-06T03:45:44.500Z,72.10
2018-05-06T03:48:12.062Z,72.20
2018-05-06T03:50:39.610Z,71.20
2018-05-06T03:53:07.178Z,70.60
2018-05-06T03:55:34.778Z,70.50
2018-05-06T03:58:14.459Z,70.80
2018-05-06T04:00:43.819Z,70.70
2018-05-06T04:03:11.375Z,70.90
2018-05-06T04:05:40.453Z,71.70
2018-05-06T04:08:09.781Z,71.60
2018-05-06T04:10:38.095Z,71.60
2018-05-06T04:13:05.641Z,71.40
2018-05-06T04:15:33.209Z,71.40
2018-05-06T04:18:00.753Z,71.50
2018-05-06T04:20:28.333Z,71.00
2018-05-06T04:22:55.877Z,70.60
2018-05-06T04:25:23.457Z,71.20
2018-05-06T04:27:51.000Z,70.70
2018-05-06T04:30:18.538Z,70.90
2018-05-06T04:32:46.215Z,70.70
2018-05-06T04:35:13.783Z,70.40
2018-05-06T04:37:41.364Z,69.70
2018-05-06T04:40:08.908Z,68.70
2018-05-06T04:42:36.510Z,68.40
2018-05-06T04:45:04.821Z,68.40
2018-05-06T04:47:32.387Z,68.40
2018-05-06T04:50:00.159Z,67.90
2018-05-06T04:52:27.700Z,68.30
2018-05-06T04:54:55.293Z,67.40
2018-05-06T04:57:22.845Z,66.70
2018-05-06T04:59:50.425Z,66.10
2018-05-06T05:02:17.981Z,65.80
2018-05-06T05:04:45.561Z,65.50
2018-05-06T05:07:14.662Z,65.90
2018-05-06T05:09:42.262Z,65.90
2018-05-06T05:12:09.895Z,65.20
2018-05-06T05:14:37.440Z,65.30
2018-05-06T05:17:05.158Z,65.80
2018-05-06T05:19:32.911Z,65.00
2018-05-06T05:22:00.543Z,65.40
2018-05-06T05:24:28.055Z,64.70
2018-05-06T05:26:55.800Z,64.70
2018-05-06T05:29:23.365Z,64.00
2018-05-06T05:31:50.960Z,64.30
2018-05-06T05:34:18.524Z,63.80
2018-05-06T05:36:46.103Z,63.50
2018-05-06T05:39:13.651Z,63.50
2018-05-06T05:41:41.532Z,61.80
2018-05-06T05:44:09.869Z,58.70
2018-05-06T05:46:37.464Z,58.70
2018-05-06T05:49:05.771Z,58.40
2018-05-06T05:51:33.343Z,58.40
2018-05-06T05:54:00.993Z,58.30
2018-05-06T05:56:28.543Z,58.80
2018-05-06T05:58:56.121Z,59.10
2018-05-06T06:01:23.763Z,59.10
2018-05-06T06:03:51.260Z,58.90
2018-05-06T06:06:18.844Z,59.20
2018-05-06T06:08:47.919Z,58.90
2018-05-06T06:11:15.543Z,58.90
2018-05-06T06:13:43.076Z,58.20
2018-05-06T06:16:10.672Z,58.00
2018-05-06T06:18:38.233Z,58.80
2018-05-06T06:21:05.828Z,57.80
2018-05-06T06:23:33.395Z,58.00
2018-05-06T06:26:00.970Z,58.30
2018-05-06T06:28:29.287Z,58.00
2018-05-06T06:30:56.868Z,58.00
2018-05-06T06:33:24.442Z,57.90
2018-05-06T06:35:51.993Z,56.90
2018-05-06T06:38:20.342Z,56.30
2018-05-06T06:40:47.893Z,56.30
2018-05-06T06:43:15.469Z,55.50
2018-05-06T06:45:43.039Z,55.30
2018-05-06T06:48:10.628Z,53.70
2018-05-06T06:50:38.224Z,52.10
2018-05-06T06:53:06.200Z,48.10
2018-05-06T06:55:33.791Z,44.80
2018-05-06T06:58:01.637Z,43.30
2018-05-06T07:00:29.229Z,42.00
2018-05-06T07:02:56.780Z,40.60
2018-05-06T07:05:24.342Z,39.00
2018-05-06T07:07:51.909Z,38.90
2018-05-06T07:10:21.079Z,38.00
2018-05-06T07:12:48.656Z,37.90
2018-05-06T07:15:16.241Z,38.00
2018-05-06T07:17:43.791Z,38.10
2018-05-06T07:20:12.321Z,36.20
2018-05-06T07:22:39.916Z,36.20
2018-05-06T07:25:07.480Z,35.20
2018-05-06T07:27:35.255Z,35.50
2018-05-06T07:30:02.839Z,34.60
2018-05-06T07:32:30.444Z,34.00
2018-05-06T07:34:58.014Z,33.90
2018-05-06T07:37:25.579Z,34.10
2018-05-06T07:39:53.918Z,33.00
2018-05-06T07:42:21.529Z,32.30
2018-05-06T07:44:49.861Z,32.60
2018-05-06T07:47:17.476Z,32.60
2018-05-06T07:49:45.037Z,33.00
2018-05-06T07:52:13.355Z,32.70
2018-05-06T07:54:40.961Z,32.70
2018-05-06T07:57:08.566Z,32.40
2018-05-06T07:59:36.141Z,31.80
2018-05-06T08:02:03.734Z,32.30
2018-05-06T08:04:31.297Z,32.40
2018-05-06T08:06:58.888Z,31.40
2018-05-06T08:09:26.491Z,30.10
2018-05-06T08:11:54.236Z,30.80
2018-05-06T08:14:21.869Z,29.90
2018-05-06T08:16:52.046Z,30.20
2018-05-06T08:19:19.807Z,30.20
2018-05-06T08:21:47.441Z,30.20
2018-05-06T08:24:14.977Z,30.50
2018-05-06T08:26:42.545Z,31.00
2018-05-06T08:29:10.111Z,30.00
2018-05-06T08:31:37.876Z,30.80
2018-05-06T08:34:05.492Z,30.50
2018-05-06T08:36:33.198Z,30.80
2018-05-06T08:39:00.768Z,30.20
2018-05-06T08:41:28.367Z,30.00
2018-05-06T08:43:55.960Z,29.80
2018-05-06T08:46:23.603Z,30.40
2018-05-06T08:48:51.285Z,29.90
2018-05-06T08:51:18.901Z,29.40
2018-05-06T08:53:47.454Z,29.30
2018-05-06T08:56:15.030Z,29.00
2018-05-06T08:58:42.651Z,28.90
2018-05-06T09:01:10.189Z,29.10
2018-05-06T09:03:37.896Z,28.50
2018-05-06T09:06:05.883Z,28.90
2018-05-06T09:08:33.516Z,29.40
2018-05-06T09:11:01.386Z,29.40
2018-05-06T09:13:28.964Z,28.50
2018-05-06T09:15:56.582Z,28.70
2018-05-06T09:18:24.946Z,28.90
2018-05-06T09:20:52.568Z,28.90
2018-05-06T09:23:20.152Z,28.40
2018-05-06T09:25:47.722Z,28.00
2018-05-06T09:28:15.576Z,28.10
2018-05-06T09:30:43.312Z,28.30
2018-05-06T09:33:10.966Z,28.50
2018-05-06T09:35:38.664Z,28.00
2018-05-06T09:38:07.789Z,27.70
2018-05-06T09:40:36.300Z,27.60
2018-05-06T09:43:03.924Z,27.60
2018-05-06T09:45:31.504Z,27.30
2018-05-06T09:47:59.109Z,27.00
2018-05-06T09:50:26.711Z,26.80
2018-05-06T09:52:54.285Z,25.80
2018-05-06T09:55:21.921Z,25.60
2018-05-06T09:57:49.506Z,25.50
2018-05-06T10:00:17.112Z,25.30
2018-05-06T10:02:44.687Z,24.80
2018-05-06T10:05:13.126Z,24.30
2018-05-06T10:07:41.646Z,24.30
2018-05-06T10:10:09.480Z,24.20
2018-05-06T10:12:37.079Z,23.30
2018-05-06T10:15:04.689Z,23.10
2018-05-06T10:17:32.292Z,23.80
2018-05-06T10:20:00.625Z,22.20
2018-05-06T10:22:28.241Z,22.10
2018-05-06T10:24:55.864Z,21.90
2018-05-06T10:27:23.449Z,22.50
2018-05-06T10:29:51.133Z,22.90
2018-05-06T10:32:18.912Z,22.70
2018-05-06T10:34:46.552Z,23.20
2018-05-06T10:37:14.228Z,22.70
2018-05-06T10:39:41.890Z,22.70
2018-05-06T10:42:10.266Z,22.40
2018-05-06T10:44:40.167Z,21.80
2018-05-06T10:47:08.551Z,22.10
2018-05-06T10:49:36.202Z,22.10
2018-05-06T10:52:03.788Z,21.80
2018-05-06T10:54:31.565Z,21.70
2018-05-06T10:56:59.444Z,21.30
2018-05-06T10:59:27.214Z,21.10
2018-05-06T11:01:54.820Z,20.70
2018-05-06T11:04:23.144Z,20.50
2018-05-06T11:06:50.797Z,20.20
2018-05-06T11:09:18.376Z,20.10
2018-05-06T11:11:46.025Z,19.90
2018-05-06T11:14:13.585Z,19.20
2018-05-06T11:16:41.254Z,20.30
2018-05-06T11:19:08.842Z,20.10
2018-05-06T11:21:36.399Z,19.50
2018-05-06T11:24:04.148Z,19.70
2018-05-06T11:26:31.873Z,20.00
2018-05-06T11:28:59.649Z,18.60
2018-05-06T11:31:27.211Z,19.10
2018-05-06T11:33:54.787Z,18.80
2018-05-06T11:36:22.435Z,18.80
2018-05-06T11:38:50.027Z,18.50
2018-05-06T11:41:19.561Z,18.50
2018-05-06T11:43:47.156Z,18.70
2018-05-06T11:46:14.776Z,18.30
2018-05-06T11:48:43.119Z,18.80
2018-05-06T11:51:10.684Z,18.80
2018-05-06T11:53:39.935Z,18.70
2018-05-06T11:56:08.287Z,18.40
2018-05-06T11:58:35.909Z,18.40
2018-05-06T12:01:03.520Z,17.60
2018-05-06T12:03:31.124Z,17.60
2018-05-06T12:05:58.697Z,17.30
2018-05-06T12:08:26.472Z,17.00
2018-05-06T12:10:54.063Z,17.20
2018-05-06T12:13:21.668Z,17.60
2018-05-06T12:15:49.310Z,17.60
2018-05-06T12:18:16.908Z,16.60
2018-05-06T12:20:44.487Z,17.50
2018-05-06T12:23:13.780Z,16.30
2018-05-06T12:25:42.130Z,16.40
2018-05-06T12:28:09.940Z,16.40
2018-05-06T12:30:37.496Z,16.90
2018-05-06T12:33:06.035Z,16.00
2018-05-06T12:35:33.822Z,15.80
2018-05-06T12:38:02.229Z,16.30
2018-05-06T12:40:30.607Z,16.10
2018-05-06T12:42:58.184Z,16.10
2018-05-06T12:45:25.812Z,16.30
2018-05-06T12:47:53.424Z,16.40
2018-05-06T12:50:21.050Z,16.50
2018-05-06T12:52:49.409Z,17.10
2018-05-06T12:55:17.073Z,17.10
2018-05-06T12:57:44.670Z,16.50
2018-05-06T13:00:12.462Z,16.80
2018-05-06T13:02:40.031Z,16.80
2018-05-06T13:05:07.639Z,16.60
2018-05-06T13:07:36.006Z,17.50
2018-05-06T13:10:03.711Z,17.40
2018-05-06T13:12:31.261Z,17.70
2018-05-06T13:14:58.832Z,17.20
2018-05-06T13:17:26.434Z,17.60
2018-05-06T13:19:54.065Z,17.50
2018-05-06T13:22:22.332Z,16.90
2018-05-06T13:24:49.988Z,16.80
2018-05-06T13:27:17.568Z,17.10
2018-05-06T13:29:45.153Z,18.10
2018-05-06T13:32:12.721Z,18.90
2018-05-06T13:34:41.850Z,18.50
2018-05-06T13:37:09.416Z,18.50
2018-05-06T13:39:37.262Z,18.00
2018-05-06T13:42:05.062Z,17.80
2018-05-06T13:44:32.627Z,17.50
2018-05-06T13:47:00.205Z,17.30
2018-05-06T13:49:27.861Z,17.60
2018-05-06T13:51:55.444Z,17.60
2018-05-06T13:54:23.034Z,17.00
2018-05-06T13:56:51.381Z,16.90
2018-05-06T13:59:18.977Z,16.90
2018-05-06T14:01:46.747Z,17.10
2018-05-06T14:04:14.500Z,17.00
2018-05-06T14:06:42.094Z,17.70
2018-05-06T14:09:09.849Z,17.90
2018-05-06T14:11:37.677Z,17.60
2018-05-06T14:14:05.989Z,17.00
2018-05-06T14:16:33.574Z,17.00
2018-05-06T14:19:01.317Z,17.00
2018-05-06T14:21:29.060Z,16.50
2018-05-06T14:23:57.610Z,18.20
2018-05-06T14:26:25.230Z,18.10
2018-05-06T14:28:52.813Z,18.00
2018-05-06T14:31:20.427Z,17.30
2018-05-06T14:33:47.994Z,17.10
2018-05-06T14:36:15.614Z,17.30
2018-05-06T14:38:43.212Z,16.40
2018-05-06T14:41:10.777Z,16.00
2018-05-06T14:43:38.403Z,16.30
2018-05-06T14:46:05.995Z,16.50
2018-05-06T14:48:33.833Z,16.00
2018-05-06T14:51:01.494Z,16.50
2018-05-06T14:53:29.871Z,16.50
2018-05-06T14:55:57.484Z,16.50
2018-05-06T14:58:25.057Z,16.40
2018-05-06T15:00:52.625Z,16.80
2018-05-06T15:03:20.549Z,17.30
2018-05-06T15:05:48.143Z,17.70
2018-05-06T15:08:15.736Z,17.90
2018-05-06T15:10:44.075Z,17.40
2018-05-06T15:13:11.821Z,17.40
2018-05-06T15:15:39.430Z,17.50
2018-05-06T15:18:07.025Z,17.50
2018-05-06T15:20:34.623Z,17.50
2018-05-06T15:23:02.386Z,17.00
2018-05-06T15:25:30.016Z,17.30
2018-05-06T15:27:57.597Z,18.00
2018-05-06T15:30:25.233Z,18.50
2018-05-06T15:32:53.040Z,17.90
2018-05-06T15:35:20.623Z,17.90
2018-05-06T15:37:48.419Z,18.30
2018-05-06T15:40:15.993Z,17.80
2018-05-06T15:42:43.583Z,17.80
2018-05-06T15:45:11.177Z,18.10
2018-05-06T15:47:38.789Z,18.20
2018-05-06T15:50:06.377Z,18.90
2018-05-06T15:52:33.951Z,18.70
2018-05-06T15:55:01.519Z,19.30
2018-05-06T15:57:29.830Z,20.00
2018-05-06T15:59:57.449Z,19.90
2018-05-06T16:02:58.360Z,20.60
2018-05-06T16:05:26.348Z,20.60
2018-05-06T16:07:53.975Z,22.30
2018-05-06T16:10:21.574Z,23.30
2018-05-06T16:12:49.178Z,23.60
2018-05-06T16:15:16.833Z,24.50
2018-05-06T16:17:44.448Z,24.40
2018-05-06T16:20:13.535Z,25.10
2018-05-06T16:22:41.196Z,25.10
2018-05-06T16:25:08.775Z,25.10
2018-05-06T16:27:37.146Z,25.20
2018-05-06T16:30:04.728Z,25.20
2018-05-06T16:32:32.299Z,24.90
2018-05-06T16:34:59.892Z,24.70
2018-05-06T16:37:27.486Z,24.50
2018-05-06T16:39:55.852Z,24.90
2018-05-06T16:42:25.148Z,25.00
2018-05-06T16:44:52.724Z,25.00
2018-05-06T16:47:20.333Z,25.00
2018-05-06T16:49:47.965Z,25.40
2018-05-06T16:52:15.576Z,26.00
2018-05-06T16:54:43.190Z,26.20
2018-05-06T16:57:11.795Z,26.00
2018-05-06T16:59:39.350Z,26.00
2018-05-06T17:02:06.966Z,26.60
2018-05-06T17:04:34.673Z,26.90
2018-05-06T17:07:02.299Z,27.10
2018-05-06T17:09:30.441Z,27.10
2018-05-06T17:11:58.112Z,27.30
2018-05-06T17:14:25.846Z,27.10
2018-05-06T17:16:53.443Z,27.60
2018-05-06T17:19:21.864Z,27.70
2018-05-06T17:21:50.269Z,28.00
2018-05-06T17:24:18.024Z,28.00
2018-05-06T17:26:45.786Z,28.10
2018-05-06T17:29:13.403Z,28.90
2018-05-06T17:31:41.037Z,29.30
2018-05-06T17:34:08.613Z,30.10
2018-05-06T17:36:36.199Z,29.80
2018-05-06T17:39:05.357Z,30.30
2018-05-06T17:41:33.404Z,30.20
2018-05-06T17:44:00.987Z,30.70
2018-05-06T17:46:28.616Z,30.90
2018-05-06T17:48:56.236Z,30.80
2018-05-06T17:51:23.846Z,31.20
2018-05-06T17:53:51.612Z,31.90
2018-05-06T17:56:19.189Z,31.60
2018-05-06T17:58:46.782Z,31.50
2018-05-06T18:01:14.412Z,32.20
2018-05-06T18:03:42.450Z,32.30
2018-05-06T18:06:10.078Z,32.40
2018-05-06T18:08:37.639Z,32.90
2018-05-06T18:11:06.120Z,33.10
2018-05-06T18:13:33.868Z,33.10
2018-05-06T18:16:01.442Z,33.50
2018-05-06T18:18:30.038Z,34.50
2018-05-06T18:20:57.646Z,34.40
2018-05-06T18:23:25.488Z,34.70
2018-05-06T18:25:53.068Z,35.20
2018-05-06T18:28:20.682Z,35.50
2018-05-06T18:30:48.361Z,35.60
2018-05-06T18:33:16.002Z,36.00
2018-05-06T18:35:43.647Z,36.30
2018-05-06T18:38:12.027Z,37.00
2018-05-06T18:40:43.074Z,37.00
2018-05-06T18:43:10.764Z,37.20
2018-05-06T18:45:38.375Z,38.00
2018-05-06T18:48:06.041Z,38.10
2018-05-06T18:50:33.844Z,38.80
2018-05-06T18:53:01.507Z,38.60
2018-05-06T18:55:29.251Z,39.40
2018-05-06T18:57:56.952Z,39.10
2018-05-06T19:00:24.617Z,39.40
2018-05-06T19:02:52.247Z,40.10
2018-05-06T19:05:20.122Z,41.40
2018-05-06T19:07:47.750Z,41.20
2018-05-06T19:10:15.703Z,41.90
2018-05-06T19:15:36.405Z,42.50
2018-05-06T19:18:04.780Z,43.50
2018-05-06T19:20:32.503Z,43.40
2018-05-06T19:23:00.177Z,44.40
2018-05-06T19:25:27.802Z,44.90
2018-05-06T19:27:55.420Z,45.50
2018-05-06T19:30:23.327Z,46.00
2018-05-06T19:32:51.021Z,45.70
2018-05-06T19:35:18.551Z,46.50
2018-05-06T19:37:46.220Z,47.00
2018-05-06T19:40:13.850Z,47.10
2018-05-06T19:42:42.289Z,47.10
2018-05-06T19:45:09.917Z,47.00
2018-05-06T19:47:37.509Z,47.20
2018-05-06T19:50:05.284Z,46.90
2018-05-06T19:52:32.876Z,48.30
2018-05-06T19:55:00.515Z,49.50
2018-05-06T19:57:28.099Z,50.10
2018-05-06T19:59:56.463Z,50.30
2018-05-06T20:02:24.227Z,50.20
2018-05-06T20:04:52.631Z,52.00
2018-05-06T20:07:20.439Z,52.00
2018-05-06T20:09:48.789Z,53.20
2018-05-06T20:12:16.453Z,53.20
2018-05-06T20:14:44.105Z,53.10
2018-05-06T20:17:11.772Z,52.70
2018-05-06T20:19:39.447Z,51.60
2018-05-06T20:22:07.037Z,51.90
2018-05-06T20:24:34.692Z,53.60
2018-05-06T20:27:02.493Z,54.90
2018-05-06T20:29:30.107Z,55.30
2018-05-06T20:31:57.683Z,55.80
2018-05-06T20:34:25.276Z,55.40
2018-05-06T20:36:52.902Z,56.00
2018-05-06T20:39:20.641Z,55.80
2018-05-06T20:41:48.221Z,55.40
2018-05-06T20:44:16.063Z,55.30
2018-05-06T20:46:43.833Z,54.70
2018-05-06T20:49:11.409Z,54.60
2018-05-06T20:51:39.355Z,56.70
2018-05-06T20:54:07.007Z,57.70
2018-05-06T20:56:34.589Z,57.60
2018-05-06T20:59:02.199Z,57.80
2018-05-06T21:01:30.516Z,59.00
2018-05-06T21:03:58.172Z,58.90
2018-05-06T21:06:25.756Z,58.80
2018-05-06T21:08:53.341Z,58.40
2018-05-06T21:11:20.941Z,58.30
2018-05-06T21:13:48.504Z,58.80
2018-05-06T21:16:16.117Z,59.50
2018-05-06T21:18:43.729Z,59.70
2018-05-06T21:21:11.319Z,59.60
2018-05-06T21:23:38.924Z,59.60
2018-05-06T21:26:07.306Z,59.90
2018-05-06T21:28:34.990Z,59.80
2018-05-06T21:31:02.670Z,60.10
2018-05-06T21:33:30.303Z,60.10
2018-05-06T21:35:57.862Z,60.90
2018-05-06T21:38:25.629Z,61.40
2018-05-06T21:40:53.218Z,61.10
2018-05-06T21:43:20.895Z,61.30
2018-05-06T21:45:48.449Z,61.40
2018-05-06T21:48:16.055Z,61.20
2018-05-06T21:50:44.573Z,61.40
2018-05-06T21:53:12.178Z,62.20
2018-05-06T21:55:40.579Z,61.30
2018-05-06T21:58:08.156Z,61.30
2018-05-06T22:00:35.780Z,61.30
2018-05-06T22:03:03.400Z,61.30
2018-05-06T22:05:30.961Z,61.30
2018-05-06T22:07:58.531Z,60.70
2018-05-06T22:10:26.131Z,60.20
2018-05-06T22:12:53.716Z,59.50
2018-05-06T22:15:21.318Z,60.10
2018-05-06T22:17:48.911Z,60.10
2018-05-06T22:20:16.455Z,60.30
2018-05-06T22:22:44.057Z,60.10
2018-05-06T22:25:11.688Z,59.90
2018-05-06T22:27:40.038Z,60.00
2018-05-06T22:30:07.618Z,60.00
2018-05-06T22:32:36.154Z,59.70
2018-05-06T22:35:03.705Z,59.30
2018-05-06T22:37:31.261Z,59.00
2018-05-06T22:39:59.110Z,58.80
2018-05-06T22:42:26.660Z,59.00
2018-05-06T22:44:55.056Z,59.60
2018-05-06T22:47:22.758Z,59.50
2018-05-06T22:49:50.809Z,59.50
2018-05-06T22:52:18.361Z,59.60
2018-05-06T22:54:45.957Z,60.20
2018-05-06T22:57:13.533Z,60.90
2018-05-06T22:59:41.391Z,61.00
2018-05-06T23:02:09.741Z,60.50
2018-05-06T23:04:37.311Z,60.50
2018-05-06T23:07:05.052Z,60.60
2018-05-06T23:09:32.620Z,61.20
2018-05-06T23:12:00.393Z,61.50
2018-05-06T23:14:27.964Z,62.00
2018-05-06T23:16:55.687Z,63.00
2018-05-06T23:19:23.293Z,62.80
2018-05-06T23:21:50.915Z,61.20
2018-05-06T23:24:18.478Z,61.70
2018-05-06T23:26:46.060Z,62.30
2018-05-06T23:29:13.966Z,62.40
2018-05-06T23:31:41.475Z,62.60
2018-05-06T23:34:09.053Z,62.70
2018-05-06T23:36:36.660Z,62.90
2018-05-06T23:39:04.417Z,63.00
2018-05-06T23:41:32.780Z,59.00
2018-05-06T23:44:00.624Z,59.00
2018-05-06T23:46:28.171Z,58.10
2018-05-06T23:48:55.738Z,58.00
2018-05-06T23:51:23.318Z,58.30
2018-05-06T23:53:50.874Z,58.50
2018-05-06T23:56:18.590Z,59.10
2018-05-06T23:58:46.151Z,59.40
